Time;durP1;ratioP1;P1;durP2;ratioP2;P2;SDS_P1;SDS_P2;PMS_P1;PMS_P2;Temp;Humidity;BMP_temperature;BMP_pressure;BME280_temperature;BME280_humidity;BME280_pressure;Samples;Min_cycle;Max_cycle;Signal;HPM_P1;HPM_P2
2022/01/13 00:00:53;;;;;;;33.65;20.13;;;;;;;-1.23;70.94;98828.97;5002213;28;20061;-83
2022/01/13 00:03:21;;;;;;;30.63;18.70;;;;;;;-1.26;69.85;98817.94;5002059;28;20062;-83
2022/01/13 00:05:49;;;;;;;31.70;19.45;;;;;;;-1.33;69.84;98824.16;5001839;28;20463;-81
2022/01/13 00:08:16;;;;;;;33.03;18.92;;;;;;;-1.39;69.96;98818.41;5002028;28;20046;-83
2022/01/13 00:10:45;;;;;;;35.05;21.02;;;;;;;-1.41;72.18;98821.03;5001682;28;20057;-83
2022/01/13 00:13:22;;;;;;;31.15;17.77;;;;;;;-1.36;71.28;98820.88;4998871;28;20046;-83
2022/01/13 00:15:51;;;;;;;32.92;18.65;;;;;;;-1.31;71.06;98814.72;4997743;28;20050;-83
2022/01/13 00:18:36;;;;;;;32.45;19.52;;;;;;;-1.19;72.88;98817.72;5001680;28;20144;-83
2022/01/13 00:21:16;;;;;;;27.27;16.08;;;;;;;-1.12;71.93;98814.06;5001345;28;20058;-82
2022/01/13 00:23:46;;;;;;;33.53;16.80;;;;;;;-1.14;70.75;98820.94;5001700;28;20050;-83
2022/01/13 00:26:20;;;;;;;32.92;19.90;;;;;;;-1.12;73.53;98817.44;5000553;28;20527;-82
2022/01/13 00:28:50;;;;;;;30.73;18.13;;;;;;;-1.07;73.25;98828.38;5000358;28;20061;-83
2022/01/13 00:31:24;;;;;;;34.75;20.50;;;;;;;-0.98;74.63;98824.66;4999643;28;20141;-83
2022/01/13 00:33:54;;;;;;;32.13;20.17;;;;;;;-0.85;75.28;98820.75;4996817;28;20141;-83
2022/01/13 00:36:23;;;;;;;37.83;23.20;;;;;;;-0.71;76.19;98839.91;4999531;28;20065;-83
2022/01/13 00:38:50;;;;;;;32.33;19.60;;;;;;;-0.60;75.97;98840.34;5000230;28;20061;-83
2022/01/13 00:41:20;;;;;;;30.70;18.50;;;;;;;-0.59;74.07;98844.59;5000720;28;20050;-83
2022/01/13 00:43:48;;;;;;;30.10;17.75;;;;;;;-0.62;72.76;98845.53;5000408;28;20057;-83
2022/01/13 00:46:21;;;;;;;26.77;17.15;;;;;;;-0.60;71.88;98854.91;4999692;28;20073;-83
2022/01/13 00:48:51;;;;;;;33.65;19.13;;;;;;;-0.63;73.56;98861.81;5000261;28;20120;-83
2022/01/13 00:51:19;;;;;;;32.03;19.90;;;;;;;-0.53;75.28;98862.28;4997801;28;20498;-82
2022/01/13 00:53:47;;;;;;;34.47;20.63;;;;;;;-0.41;76.20;98861.03;4997476;28;20054;-83
2022/01/13 00:56:15;;;;;;;33.33;20.85;;;;;;;-0.31;76.67;98864.88;5000274;28;20424;-83
2022/01/13 00:58:44;;;;;;;33.25;20.80;;;;;;;-0.19;77.54;98866.16;4999742;28;20054;-83
2022/01/13 01:01:12;;;;;;;33.20;20.85;;;;;;;-0.10;77.62;98864.97;4999824;28;20057;-80
2022/01/13 01:03:40;;;;;;;37.92;21.27;;;;;;;-0.03;76.55;98861.28;5001631;28;20053;-80
2022/01/13 01:06:08;;;;;;;34.80;20.80;;;;;;;0.01;76.56;98867.13;5001281;28;20452;-80
2022/01/13 01:08:36;;;;;;;27.13;17.40;;;;;;;0.01;75.24;98869.69;5000407;28;20046;-80
2022/01/13 01:11:05;;;;;;;24.75;16.35;;;;;;;-0.08;72.46;98864.03;4996959;28;20050;-80
2022/01/13 01:13:35;;;;;;;25.25;15.48;;;;;;;-0.17;71.64;98879.78;5000683;28;20065;-80
2022/01/13 01:16:08;;;;;;;26.55;16.77;;;;;;;-0.25;70.88;98882.63;5001332;28;20057;-80
2022/01/13 01:18:48;;;;;;;29.50;17.00;;;;;;;-0.28;71.37;98887.88;5002235;28;20058;-80
2022/01/13 01:21:36;;;;;;;26.58;16.73;;;;;;;-0.29;70.79;98887.94;5001377;28;20046;-80
2022/01/13 01:24:28;;;;;;;27.00;16.27;;;;;;;-0.28;71.30;98887.03;5000968;28;20046;-80
2022/01/13 01:27:01;;;;;;;26.58;16.08;;;;;;;-0.28;71.37;98884.47;5001661;28;20051;-80
2022/01/13 01:29:35;;;;;;;28.60;18.42;;;;;;;-0.27;73.31;98886.13;4998989;28;20054;-80
2022/01/13 01:32:09;;;;;;;29.27;16.27;;;;;;;-0.23;72.22;98885.13;5007079;28;20239;-80
2022/01/13 01:34:52;;;;;;;27.75;16.20;;;;;;;-0.32;70.86;98891.44;5013369;28;20057;-80
2022/01/13 01:37:23;;;;;;;;;;;;;;;-0.37;69.90;98892.50;5018111;28;20055;-81
2022/01/13 01:39:52;;;;;;;26.73;16.55;;;;;;;-0.49;70.82;98889.50;5008721;28;19928;-80
2022/01/13 01:42:21;;;;;;;29.65;17.80;;;;;;;-0.47;72.36;98882.59;5002242;28;20051;-80
2022/01/13 01:44:53;;;;;;;35.50;20.52;;;;;;;-0.37;74.10;98877.09;5012652;28;20099;-79
2022/01/13 01:47:24;;;;;;;33.63;20.17;;;;;;;-0.23;75.92;98869.75;5018641;28;20060;-80
2022/01/13 01:49:56;;;;;;;34.05;20.65;;;;;;;-0.10;76.38;98864.97;5014070;28;20056;-80
2022/01/13 01:52:27;;;;;;;28.50;17.83;;;;;;;-0.04;75.07;98857.88;5005206;28;20058;-80
2022/01/13 01:54:55;;;;;;;29.80;18.02;;;;;;;-0.06;73.47;98862.25;5003531;28;20062;-80
2022/01/13 01:57:24;;;;;;;28.83;18.02;;;;;;;-0.03;73.58;98868.97;5009560;28;20056;-79
2022/01/13 01:59:53;;;;;;;27.77;18.15;;;;;;;0.02;75.06;98864.50;5018747;28;20034;-80
2022/01/13 02:02:24;;;;;;;28.73;17.85;;;;;;;0.09;76.65;98865.09;5005910;28;20050;-80
2022/01/13 02:04:52;;;;;;;29.55;18.30;;;;;;;0.15;76.41;98873.41;5000914;28;20050;-80
2022/01/13 02:07:20;;;;;;;29.50;18.27;;;;;;;0.15;75.87;98868.28;4997992;28;20066;-80
2022/01/13 02:09:51;;;;;;;24.15;15.48;;;;;;;0.13;74.19;98864.94;5000512;28;20057;-80
2022/01/13 02:12:31;;;;;;;27.40;17.17;;;;;;;0.08;73.39;98860.84;5000425;28;20047;-80
2022/01/13 02:15:15;;;;;;;25.52;15.65;;;;;;;0.06;73.09;98860.09;5001419;28;20061;-80
2022/01/13 02:17:44;;;;;;;27.70;15.75;;;;;;;0.03;72.04;98855.91;5001639;28;20053;-80
2022/01/13 02:20:18;;;;;;;24.02;15.63;;;;;;;-0.01;71.50;98856.94;5004837;28;20038;-80
2022/01/13 02:22:45;;;;;;;26.20;15.85;;;;;;;0.00;72.73;98856.03;5017786;28;20056;-80
2022/01/13 02:25:14;;;;;;;25.33;16.08;;;;;;;0.03;73.36;98839.69;5017692;28;20042;-79
2022/01/13 02:27:41;;;;;;;29.17;16.88;;;;;;;0.10;74.87;98836.81;5017644;28;20037;-80
2022/01/13 02:30:11;;;;;;;24.73;14.88;;;;;;;0.21;74.24;98828.69;5006985;28;20046;-80
2022/01/13 02:32:38;;;;;;;25.30;16.38;;;;;;;0.26;74.83;98821.59;5003235;28;20047;-81
2022/01/13 02:35:07;;;;;;;27.90;16.13;;;;;;;0.28;74.45;98814.69;5003242;28;20058;-80
2022/01/13 02:37:37;;;;;;;29.05;17.48;;;;;;;0.33;75.08;98809.38;5002847;28;20440;-80
2022/01/13 02:40:06;;;;;;;28.52;16.45;;;;;;;0.35;74.66;98808.41;5002284;28;20058;-80
2022/01/13 02:42:33;;;;;;;27.65;17.50;;;;;;;0.38;74.92;98805.72;5000453;28;20057;-80
2022/01/13 02:45:03;;;;;;;29.48;16.90;;;;;;;0.41;75.15;98808.13;4998120;28;20058;-80
2022/01/13 02:47:47;;;;;;;28.27;18.27;;;;;;;0.47;75.67;98804.50;4999089;28;20051;-80
2022/01/13 02:50:15;;;;;;;29.75;17.40;;;;;;;0.52;75.81;98801.72;5001146;28;20065;-80
2022/01/13 02:52:44;;;;;;;32.92;18.98;;;;;;;0.55;76.60;98799.88;5001320;28;20516;-80
2022/01/13 02:55:12;;;;;;;32.08;18.05;;;;;;;0.61;77.21;98801.34;5001656;28;20061;-80
2022/01/13 02:57:39;;;;;;;26.75;16.38;;;;;;;0.63;75.73;98804.69;5000927;28;20057;-80
2022/01/13 03:00:09;;;;;;;25.55;16.00;;;;;;;0.62;75.70;98808.16;5001076;28;20050;-80
2022/01/13 03:02:37;;;;;;;28.58;17.13;;;;;;;0.67;76.60;98803.66;4999231;28;20054;-80
2022/01/13 03:05:11;;;;;;;30.00;18.27;;;;;;;0.74;76.88;98809.34;4998167;28;20093;-80
2022/01/13 03:07:39;;;;;;;29.30;18.27;;;;;;;0.76;76.39;98810.13;5000813;28;20046;-80
2022/01/13 03:10:09;;;;;;;29.00;17.85;;;;;;;0.78;76.35;98804.00;5008736;28;20030;-81
2022/01/13 03:12:40;;;;;;;26.27;16.23;;;;;;;0.78;75.77;98816.88;5017227;28;20065;-80
2022/01/13 03:15:09;;;;;;;32.35;19.05;;;;;;;0.80;76.55;98804.78;5017424;28;20045;-80
2022/01/13 03:17:37;;;;;;;31.85;20.25;;;;;;;0.87;77.91;98812.22;5012979;28;20074;-80
2022/01/13 03:20:06;;;;;;;32.78;18.60;;;;;;;0.92;78.08;98805.16;5000318;28;20050;-80
2022/01/13 03:22:33;;;;;;;32.47;19.20;;;;;;;0.95;77.63;98800.72;4997500;28;20054;-80
2022/01/13 03:25:03;;;;;;;29.88;17.80;;;;;;;0.94;76.76;98798.22;5000096;28;20050;-80
2022/01/13 03:27:35;;;;;;;31.98;19.42;;;;;;;0.96;77.09;98806.69;5000506;28;20051;-80
2022/01/13 03:30:06;;;;;;;30.47;18.07;;;;;;;1.01;77.85;98809.91;5001138;28;20562;-80
2022/01/13 03:32:35;;;;;;;32.13;19.65;;;;;;;1.06;78.47;98812.28;5001226;28;20421;-80
2022/01/13 03:35:04;;;;;;;35.65;20.20;;;;;;;1.09;78.49;98812.94;5003153;28;20057;-80
2022/01/13 03:37:32;;;;;;;30.63;19.27;;;;;;;1.10;78.04;98812.06;5004961;28;20516;-80
2022/01/13 03:40:00;;;;;;;28.05;18.60;;;;;;;1.13;77.94;98805.94;5002224;28;20085;-80
2022/01/13 03:42:28;;;;;;;28.45;18.13;;;;;;;1.14;77.79;98805.06;5001170;28;20057;-80
2022/01/13 03:44:58;;;;;;;29.65;17.75;;;;;;;1.16;78.19;98798.94;5056756;22;20056;-80
2022/01/13 03:47:25;;;;;;;23.77;14.90;;;;;;;1.15;76.38;98793.88;5056631;28;20053;-81
2022/01/13 03:49:54;;;;;;;26.17;17.42;;;;;;;1.12;76.59;98792.28;5057766;28;20057;-80
2022/01/13 03:52:51;;;;;;;24.05;16.58;;;;;;;1.04;76.59;98796.91;5058061;28;20045;-81
2022/01/13 03:56:07;;;;;;;31.70;18.38;;;;;;;1.03;77.77;98808.09;5057392;28;20052;-79
2022/01/13 03:59:03;;;;;;;23.30;15.57;;;;;;;0.98;75.88;98799.75;4995016;28;20053;-79
2022/01/13 04:01:52;;;;;;;29.63;17.35;;;;;;;0.98;77.23;98792.03;5056204;28;20049;-80
2022/01/13 04:04:20;;;;;;;27.20;17.13;;;;;;;1.00;77.01;98787.66;5057708;28;20114;-80
2022/01/13 04:06:48;;;;;;;22.98;14.35;;;;;;;1.00;76.21;98783.34;5057108;28;20431;-81
2022/01/13 04:09:36;;;;;;;19.05;11.68;;;;;;;0.97;74.59;98788.63;5057050;28;20078;-80
2022/01/13 04:12:06;;;;;;;17.33;11.38;;;;;;;0.93;74.92;98781.13;5057210;28;20136;-79
2022/01/13 04:14:57;;;;;;;19.45;10.82;;;;;;;0.88;74.76;98777.94;5057013;28;20427;-80
2022/01/13 04:17:27;;;;;;;18.67;11.40;;;;;;;0.82;74.73;98784.19;5056360;28;20064;-80
2022/01/13 04:19:55;;;;;;;19.48;12.65;;;;;;;0.75;75.01;98782.78;5056049;28;20057;-80
2022/01/13 04:22:25;;;;;;;18.67;11.35;;;;;;;0.74;74.63;98786.22;5056701;28;20045;-79
2022/01/13 04:24:54;;;;;;;19.95;12.20;;;;;;;0.73;74.76;98780.28;5056334;28;20494;-80
2022/01/13 04:27:24;;;;;;;21.58;11.95;;;;;;;0.74;75.24;98787.06;5056701;28;20045;-79
2022/01/13 04:30:11;;;;;;;19.67;11.85;;;;;;;0.79;75.81;98785.16;5056880;28;20060;-79
2022/01/13 04:32:40;;;;;;;20.08;11.20;;;;;;;0.87;76.19;98787.38;5056850;28;20049;-79
2022/01/13 04:35:10;;;;;;;16.15;9.48;;;;;;;0.87;75.12;98792.50;5056420;28;20048;-79
2022/01/13 04:37:37;;;;;;;15.40;9.43;;;;;;;0.81;74.39;98788.50;5054815;28;20490;-78
2022/01/13 04:40:08;;;;;;;16.63;10.20;;;;;;;0.80;74.64;98791.13;5055790;28;20434;-79
2022/01/13 04:42:37;;;;;;;14.60;8.80;;;;;;;0.83;74.97;98796.09;5055949;28;20525;-79
2022/01/13 04:45:06;;;;;;;14.43;9.20;;;;;;;0.84;74.61;98804.69;5055520;28;20052;-80
2022/01/13 04:47:33;;;;;;;14.00;8.82;;;;;;;0.83;74.86;98803.81;5054647;28;20048;-79
2022/01/13 04:50:02;;;;;;;16.65;9.82;;;;;;;0.88;75.90;98813.91;5055833;28;20483;-79
2022/01/13 04:52:30;;;;;;;15.30;9.00;;;;;;;0.91;75.61;98814.59;5055869;28;20076;-81
2022/01/13 04:54:57;;;;;;;15.63;9.20;;;;;;;0.93;74.90;98811.97;5054851;28;20045;-80
2022/01/13 04:57:25;;;;;;;15.70;9.23;;;;;;;0.93;74.76;98810.22;5055169;28;20103;-80
2022/01/13 04:59:52;;;;;;;15.23;9.32;;;;;;;0.92;74.84;98812.84;5055754;28;20053;-79
2022/01/13 05:02:20;;;;;;;17.40;11.70;;;;;;;0.94;74.44;98818.78;5055682;28;20057;-79
2022/01/13 05:04:47;;;;;;;21.60;11.43;;;;;;;0.95;74.32;98825.59;5055644;28;20072;-80
2022/01/13 05:07:16;;;;;;;18.85;11.35;;;;;;;0.94;74.44;98824.75;5055238;28;20049;-80
2022/01/13 05:09:44;;;;;;;17.52;10.55;;;;;;;0.97;74.48;98826.38;5055175;28;20499;-80
2022/01/13 05:12:12;;;;;;;17.80;10.52;;;;;;;1.02;75.28;98826.97;5055786;28;20434;-80
2022/01/13 05:14:39;;;;;;;18.48;10.30;;;;;;;1.07;74.89;98819.91;5054503;28;20048;-80
2022/01/13 05:17:12;;;;;;;20.00;11.93;;;;;;;1.05;73.87;98826.88;5054616;28;20064;-80
2022/01/13 05:19:45;;;;;;;16.65;9.82;;;;;;;1.01;73.85;98833.03;5055517;28;20507;-78
2022/01/13 05:22:16;;;;;;;18.20;10.63;;;;;;;0.94;73.93;98836.75;5055489;28;20081;-81
2022/01/13 05:24:49;;;;;;;16.27;10.43;;;;;;;0.92;74.21;98830.84;5055197;28;20499;-80
2022/01/13 05:27:18;;;;;;;;;;;;;;;0.94;74.25;98835.03;5055226;28;20064;-80
2022/01/13 05:29:46;;;;;;;18.10;11.38;;;;;;;0.93;74.43;98832.53;5055198;28;19928;-82
2022/01/13 05:32:14;;;;;;;18.58;11.45;;;;;;;0.96;74.75;98825.53;5054886;28;20044;-80
2022/01/13 05:34:41;;;;;;;16.70;10.85;;;;;;;1.01;75.42;98813.31;5054703;28;20048;-83
2022/01/13 05:37:11;;;;;;;19.38;12.38;;;;;;;1.10;76.28;98824.09;5054122;28;20052;-79
2022/01/13 05:39:39;;;;;;;19.27;12.13;;;;;;;1.17;76.80;98826.31;5054528;28;20061;-80
2022/01/13 05:42:08;;;;;;;21.58;13.02;;;;;;;1.24;77.24;98825.13;5054986;28;20080;-79
2022/01/13 05:44:38;;;;;;;20.42;13.35;;;;;;;1.31;77.30;98824.84;5054532;28;20064;-81
2022/01/13 05:47:07;;;;;;;22.77;14.10;;;;;;;1.37;77.63;98827.16;5054213;28;20053;-83
2022/01/13 05:49:35;;;;;;;23.08;14.18;;;;;;;1.42;77.06;98830.34;5054592;28;20049;-82
2022/01/13 05:52:03;;;;;;;20.67;12.10;;;;;;;1.42;76.07;98832.91;5054211;28;20100;-79
2022/01/13 05:54:30;;;;;;;22.67;14.48;;;;;;;1.44;76.19;98833.69;5053727;28;20048;-80
2022/01/13 05:56:58;;;;;;;30.73;18.73;;;;;;;1.44;77.00;98844.81;5054386;28;20057;-81
2022/01/13 05:59:27;;;;;;;35.80;20.92;;;;;;;1.45;76.08;98845.66;5054596;28;20053;-80
2022/01/13 06:01:55;;;;;;;29.52;16.90;;;;;;;1.43;75.50;98842.31;5054694;28;20052;-79
2022/01/13 06:04:23;;;;;;;25.92;14.45;;;;;;;1.42;74.91;98840.63;5054686;28;20076;-80
2022/01/13 06:06:50;;;;;;;23.77;13.55;;;;;;;1.39;74.92;98839.03;5054717;28;20048;-79
2022/01/13 06:09:18;;;;;;;19.95;12.82;;;;;;;1.38;74.64;98839.97;5054894;28;20056;-79
2022/01/13 06:11:55;;;;;;;28.23;16.05;;;;;;;1.38;75.09;98839.97;5053820;28;20053;-80
2022/01/13 06:14:23;;;;;;;27.45;14.57;;;;;;;1.42;76.25;98846.63;5054385;28;20052;-80
2022/01/13 06:16:51;;;;;;;21.13;12.52;;;;;;;1.42;74.93;98850.91;5054088;28;20053;-79
2022/01/13 06:19:19;;;;;;;19.85;13.25;;;;;;;1.39;74.66;98844.19;5054245;28;20515;-79
2022/01/13 06:21:47;;;;;;;22.95;13.55;;;;;;;1.37;75.59;98838.28;5053868;28;20080;-80
2022/01/13 06:24:15;;;;;;;23.60;14.32;;;;;;;1.40;76.51;98832.16;5052286;28;20045;-80
2022/01/13 06:26:42;;;;;;;20.05;13.23;;;;;;;1.44;76.31;98831.09;5073830;28;20469;-85
2022/01/13 06:29:11;;;;;;;22.20;14.45;;;;;;;1.49;76.21;98831.75;5073340;28;20084;-89
2022/01/13 06:31:39;;;;;;;23.88;13.15;;;;;;;1.53;76.84;98832.44;5060478;28;20136;-90
2022/01/13 06:34:08;;;;;;;28.55;14.63;;;;;;;1.55;76.29;98826.34;5072746;28;20052;-89
2022/01/13 06:36:35;;;;;;;22.80;14.43;;;;;;;1.58;75.88;98825.34;5082381;28;20064;-84
2022/01/13 06:39:04;;;;;;;25.80;14.23;;;;;;;1.56;74.98;98829.72;5087318;28;20048;-86
2022/01/13 06:41:31;;;;;;;22.98;13.43;;;;;;;1.54;74.58;98837.50;5088630;28;20055;-87
2022/01/13 06:43:59;;;;;;;28.80;16.02;;;;;;;1.55;75.15;98834.06;5088452;28;20056;-85
2022/01/13 06:46:26;;;;;;;22.80;12.98;;;;;;;1.56;74.41;98843.44;5081907;28;20040;-86
2022/01/13 06:48:54;;;;;;;22.67;13.13;;;;;;;1.56;74.09;98842.59;5082135;28;20387;-84
2022/01/13 06:51:23;;;;;;;22.35;13.70;;;;;;;1.55;74.46;98846.06;5077918;28;20060;-82
2022/01/13 06:53:51;;;;;;;21.73;13.18;;;;;;;1.57;73.67;98850.22;5076016;28;20495;-88
2022/01/13 06:56:18;;;;;;;28.73;14.25;;;;;;;1.54;74.66;98852.94;5074313;28;20056;-82
2022/01/13 06:58:48;;;;;;;22.73;13.60;;;;;;;1.54;74.46;98850.38;5053920;28;20067;-85
2022/01/13 07:01:15;;;;;;;25.27;13.55;;;;;;;1.54;74.61;98855.53;5051219;28;20521;-84
2022/01/13 07:03:43;;;;;;;27.30;14.32;;;;;;;1.53;74.47;98859.00;5055261;28;20053;-85
2022/01/13 07:06:12;;;;;;;24.65;13.70;;;;;;;1.56;75.55;98865.75;5062473;28;20049;-84
2022/01/13 07:08:41;;;;;;;24.85;13.35;;;;;;;1.58;75.60;98877.63;5074788;28;20056;-83
2022/01/13 07:11:08;;;;;;;22.73;11.63;;;;;;;1.58;75.31;98877.63;5066619;28;20056;-84
2022/01/13 07:13:36;;;;;;;20.52;12.90;;;;;;;1.57;75.61;98881.09;5058565;28;20049;-88
2022/01/13 07:16:04;;;;;;;27.75;12.98;;;;;;;1.58;76.12;98887.91;5059046;28;20049;-86
2022/01/13 07:18:38;;;;;;;22.30;13.27;;;;;;;1.60;75.89;98890.44;5059984;28;20056;-81
2022/01/13 07:21:16;;;;;;;26.98;14.38;;;;;;;1.57;74.23;98895.69;5059436;28;20052;-87
2022/01/13 07:23:45;;;;;;;21.38;13.63;;;;;;;1.50;74.27;98897.72;5059163;28;20532;-84
2022/01/13 07:26:12;;;;;;;22.45;14.02;;;;;;;1.50;74.85;98908.00;5058073;28;20041;-87
2022/01/13 07:28:40;;;;;;;26.55;14.77;;;;;;;1.52;75.36;98903.63;5058668;28;20075;-90
2022/01/13 07:31:08;;;;;;;22.60;13.95;;;;;;;1.58;76.37;98913.66;5060034;28;20052;-87
2022/01/13 07:33:36;;;;;;;20.20;12.23;;;;;;;1.60;76.81;98922.13;5067552;28;20056;-90
2022/01/13 07:36:04;;;;;;;18.33;10.27;;;;;;;1.53;75.40;98917.31;5060917;28;20049;-87
2022/01/13 07:38:32;;;;;;;16.48;10.23;;;;;;;1.42;75.37;98918.66;5070581;28;20048;-91
2022/01/13 07:41:05;;;;;;;20.08;11.50;;;;;;;1.42;75.75;98917.78;5063489;28;20483;-91
2022/01/13 07:43:41;;;;;;;20.08;12.75;;;;;;;1.46;76.19;98915.91;5063845;28;20056;-85
2022/01/13 07:46:09;;;;;;;22.88;13.35;;;;;;;1.47;76.51;98917.63;5058254;28;20056;-85
2022/01/13 07:48:37;;;;;;;19.60;12.80;;;;;;;1.48;76.92;98922.66;5061918;28;20171;-89
2022/01/13 07:51:05;;;;;;;18.05;12.52;;;;;;;1.51;77.11;98917.41;5059698;28;20049;-89
2022/01/13 07:53:32;;;;;;;17.98;11.30;;;;;;;1.52;77.13;98918.22;5059340;28;20049;-85
2022/01/13 07:56:01;;;;;;;17.98;11.02;;;;;;;1.52;76.58;98918.22;5058750;28;20435;-86
2022/01/13 07:58:29;;;;;;;16.55;9.77;;;;;;;1.52;75.80;98921.63;5059086;28;20049;-87
2022/01/13 08:00:56;;;;;;;14.85;9.10;;;;;;;1.48;75.42;98911.53;5058602;28;20052;-87
2022/01/13 08:03:24;;;;;;;18.63;10.00;;;;;;;1.50;75.64;98915.72;5059439;28;20060;-85
2022/01/13 08:05:52;;;;;;;13.20;9.60;;;;;;;1.53;76.30;98913.03;5058708;28;20055;-86
2022/01/13 08:08:20;;;;;;;14.57;8.40;;;;;;;1.54;76.38;98906.13;5066316;28;20060;-83
2022/01/13 08:10:47;;;;;;;13.55;8.70;;;;;;;1.54;76.69;98912.13;5074243;28;20052;-83
2022/01/13 08:13:16;;;;;;;13.40;7.68;;;;;;;1.55;77.08;98918.09;5058030;28;20049;-84
2022/01/13 08:15:44;;;;;;;13.00;8.60;;;;;;;1.54;76.50;98932.69;5057758;28;20041;-84
2022/01/13 08:20:56;;;;;;;22.75;8.48;;;;;;;1.49;76.23;98929.50;5056038;28;20049;-84
2022/01/13 08:23:24;;;;;;;23.98;9.35;;;;;;;1.51;77.28;98934.56;5056729;28;20049;-81
2022/01/13 08:25:51;;;;;;;12.73;7.90;;;;;;;1.51;77.27;98934.56;5056527;28;20045;-87
2022/01/13 08:28:20;;;;;;;15.23;8.23;;;;;;;1.52;77.38;98936.25;5056881;28;20431;-84
2022/01/13 08:30:48;;;;;;;11.80;7.30;;;;;;;1.51;76.72;98942.25;5064910;28;20052;-82
2022/01/13 08:33:17;;;;;;;14.88;8.10;;;;;;;1.45;76.79;98935.66;5077679;28;20131;-82
2022/01/13 08:35:44;;;;;;;12.95;8.02;;;;;;;1.42;76.93;98928.94;5076713;28;20056;-80
2022/01/13 08:38:16;;;;;;;15.07;8.10;;;;;;;1.43;77.37;98925.44;5068586;28;20525;-78
2022/01/13 08:40:44;;;;;;;13.10;7.85;;;;;;;1.47;77.91;98923.59;5056664;28;20053;-81
2022/01/13 08:43:12;;;;;;;17.55;8.05;;;;;;;1.51;77.56;98926.84;5056048;28;20045;-82
2022/01/13 08:45:41;;;;;;;13.23;7.40;;;;;;;1.48;76.55;98927.81;5055589;28;20049;-81
2022/01/13 08:48:10;;;;;;;10.45;6.35;;;;;;;1.42;76.08;98918.66;5057037;28;20049;-85
2022/01/13 08:50:37;;;;;;;13.23;7.80;;;;;;;1.44;76.45;98921.13;5056514;28;20045;-84
2022/01/13 08:53:05;;;;;;;13.15;6.80;;;;;;;1.43;76.17;98922.03;5056551;28;20051;-82
2022/01/13 08:55:33;;;;;;;13.63;8.48;;;;;;;1.43;76.60;98925.44;5056801;28;20478;-81
2022/01/13 08:58:00;;;;;;;12.88;7.40;;;;;;;1.43;76.29;98922.88;5056694;28;20049;-85
2022/01/13 09:00:28;;;;;;;11.90;5.85;;;;;;;1.43;75.50;98924.63;5056816;28;20060;-81
2022/01/13 09:02:57;;;;;;;11.05;6.88;;;;;;;1.40;75.28;98919.59;5055461;28;20049;-79
2022/01/13 09:05:25;;;;;;;16.63;7.70;;;;;;;1.37;75.03;98918.00;5056013;28;20067;-82
2022/01/13 09:07:52;;;;;;;15.68;7.40;;;;;;;1.29;75.24;98925.22;5073144;28;20104;-78
2022/01/13 09:10:20;;;;;;;11.40;6.40;;;;;;;1.22;74.97;98923.78;5075917;28;20082;-82
2022/01/13 09:12:47;;;;;;;14.23;6.45;;;;;;;1.20;75.51;98918.75;5076409;28;20044;-83
2022/01/13 09:15:17;;;;;;;17.27;6.07;;;;;;;1.21;75.62;98930.69;5068417;28;20064;-82
2022/01/13 09:17:51;;;;;;;10.30;5.70;;;;;;;1.26;75.22;98927.91;5056542;28;20136;-83
2022/01/13 09:20:21;;;;;;;15.18;7.15;;;;;;;1.28;74.90;98927.84;5055785;28;20049;-81
2022/01/13 09:22:48;;;;;;;13.07;7.97;;;;;;;1.25;74.75;98926.25;5056028;28;20132;-86
2022/01/13 09:25:16;;;;;;;14.60;7.38;;;;;;;1.27;74.83;98923.59;5056166;28;20529;-81
2022/01/13 09:27:44;;;;;;;12.25;7.10;;;;;;;1.24;75.18;98925.41;5055292;28;20063;-82
2022/01/13 09:30:14;;;;;;;11.48;7.20;;;;;;;1.25;74.98;98915.97;5056065;28;20052;-83
2022/01/13 09:32:41;;;;;;;12.70;6.78;;;;;;;1.28;75.73;98915.81;5055797;28;20061;-83
2022/01/13 09:35:10;;;;;;;15.73;7.68;;;;;;;1.35;76.18;98912.06;5056066;28;20524;-81
2022/01/13 09:37:38;;;;;;;14.00;7.63;;;;;;;1.37;76.09;98910.28;5056515;28;20081;-84
2022/01/13 09:40:09;;;;;;;13.77;7.78;;;;;;;1.43;76.81;98916.91;5055857;28;20122;-86
2022/01/13 09:42:41;;;;;;;16.05;6.85;;;;;;;1.42;75.21;98907.50;5057100;28;20053;-83
2022/01/13 09:45:09;;;;;;;16.55;7.65;;;;;;;1.36;74.75;98907.78;5077306;22;20045;-74
2022/01/13 09:47:38;;;;;;;12.95;7.53;;;;;;;1.36;74.64;98906.06;5054361;28;20049;-75
2022/01/13 09:50:11;;;;;;;13.43;7.22;;;;;;;1.32;74.43;98901.94;5053794;28;20052;-74
2022/01/13 09:52:41;;;;;;;11.05;6.43;;;;;;;1.27;73.85;98913.31;5053181;28;20052;-75
2022/01/13 09:55:10;;;;;;;18.83;7.22;;;;;;;1.19;74.74;98911.91;5053815;28;20049;-74
2022/01/13 09:57:41;;;;;;;11.25;6.90;;;;;;;1.19;75.44;98906.78;5053574;28;20045;-74
2022/01/13 10:00:10;;;;;;;14.18;7.03;;;;;;;1.19;74.64;98901.63;5054045;28;20063;-75
2022/01/13 10:02:38;;;;;;;17.25;8.05;;;;;;;1.17;74.60;98898.28;5061429;28;20044;-75
2022/01/13 10:05:07;;;;;;;15.38;7.40;;;;;;;1.16;74.90;98909.50;5065629;28;20053;-75
2022/01/13 10:07:37;;;;;;;13.20;5.75;;;;;;;1.21;74.53;98910.13;5063398;28;20041;-74
2022/01/13 10:10:27;;;;;;;19.05;6.70;;;;;;;1.14;74.28;98908.72;5053869;28;20045;-75
2022/01/13 10:13:04;;;;;;;16.15;5.97;;;;;;;1.05;74.47;98906.56;5054730;28;20049;-75
2022/01/13 10:18:42;;;;;;;12.00;6.88;;;;;;;0.98;74.79;98902.53;5052829;28;20457;-74
2022/01/13 10:21:12;;;;;;;14.48;6.72;;;;;;;1.02;74.97;98914.38;5053134;28;20057;-74
2022/01/13 10:24:01;;;;;;;16.15;7.60;;;;;;;1.12;77.06;98910.50;5053235;28;20051;-74
2022/01/13 10:26:31;;;;;;;13.20;6.72;;;;;;;1.23;76.01;98910.88;5053963;28;20045;-74
2022/01/13 10:28:59;;;;;;;24.98;7.18;;;;;;;1.31;75.22;98918.28;5053608;28;20067;-74
2022/01/13 10:31:47;;;;;;;18.20;6.43;;;;;;;1.32;74.18;98919.09;5053051;28;20045;-74
2022/01/13 10:34:20;;;;;;;20.27;7.28;;;;;;;1.27;74.45;98918.44;5052686;28;20052;-74
2022/01/13 10:37:06;;;;;;;11.07;6.40;;;;;;;1.23;74.08;98916.03;5056188;28;20033;-76
2022/01/13 10:39:56;;;;;;;16.27;7.60;;;;;;;1.21;75.96;98912.69;5054561;28;20059;-77
2022/01/13 10:45:35;;;;;;;14.88;6.85;;;;;;;1.33;75.71;98915.63;5051524;28;20045;-77
2022/01/13 10:48:05;;;;;;;15.48;6.70;;;;;;;1.44;75.47;98905.69;5052428;28;20135;-77
2022/01/13 10:50:36;;;;;;;18.10;8.25;;;;;;;1.49;74.65;98908.91;5055121;28;20057;-76
2022/01/13 10:53:07;;;;;;;22.50;7.95;;;;;;;1.50;74.00;98905.44;5054272;28;20049;-73
2022/01/13 10:55:41;;;;;;;16.60;7.55;;;;;;;1.54;74.33;98906.97;5052446;28;20052;-76
2022/01/13 10:58:13;;;;;;;23.58;8.07;;;;;;;1.58;74.27;98903.34;5052231;28;20388;-76
2022/01/13 11:00:41;;;;;;;13.32;6.65;;;;;;;1.59;73.52;98901.63;5051898;28;20051;-76
2022/01/13 11:03:11;;;;;;;13.02;6.80;;;;;;;1.54;73.68;98903.56;5051790;28;20098;-75
2022/01/13 11:05:42;;;;;;;11.63;6.93;;;;;;;1.51;74.07;98906.25;5043668;28;20085;-75
2022/01/13 11:08:10;;;;;;;11.85;5.90;;;;;;;1.52;73.98;98906.19;5006004;28;20419;-76
2022/01/13 11:10:47;;;;;;;12.40;7.47;;;;;;;1.47;73.49;98908.16;5052296;28;20060;-76
2022/01/13 11:13:18;;;;;;;12.75;7.03;;;;;;;1.46;73.70;98914.19;5052168;28;20048;-76
2022/01/13 11:15:50;;;;;;;11.40;6.43;;;;;;;1.52;74.14;98908.78;5051797;28;20084;-76
2022/01/13 11:18:19;;;;;;;14.82;6.95;;;;;;;1.61;74.66;98912.66;5051679;28;20045;-76
2022/01/13 11:20:47;;;;;;;15.05;7.28;;;;;;;1.73;74.23;98906.13;5052593;28;20053;-77
2022/01/13 11:23:18;;;;;;;12.85;7.78;;;;;;;1.81;73.25;98910.03;5058825;28;20056;-76
2022/01/13 11:25:47;;;;;;;19.95;8.80;;;;;;;1.85;73.83;98910.72;5054775;28;20080;-77
2022/01/13 11:28:15;;;;;;;13.98;8.23;;;;;;;1.88;74.00;98915.75;5051794;28;20064;-77
2022/01/13 11:30:49;;;;;;;13.32;8.38;;;;;;;1.99;73.35;98920.38;5052164;28;20396;-76
2022/01/13 11:33:17;;;;;;;19.10;9.70;;;;;;;2.10;72.62;98910.44;5052350;28;20049;-76
2022/01/13 11:35:52;;;;;;;21.67;9.95;;;;;;;2.12;72.40;98912.91;5051700;28;20041;-75
2022/01/13 11:38:21;;;;;;;25.40;9.88;;;;;;;2.11;72.17;98900.97;5051930;28;20527;-77
2022/01/13 11:40:51;;;;;;;17.20;9.93;;;;;;;2.06;72.54;98903.75;5051351;28;20061;-76
2022/01/13 11:43:37;;;;;;;18.35;8.57;;;;;;;2.07;72.33;98910.56;5052942;28;20053;-75
2022/01/13 11:46:19;;;;;;;19.13;9.40;;;;;;;2.08;72.22;98904.53;5051726;28;20136;-76
2022/01/13 11:49:01;;;;;;;20.40;9.55;;;;;;;2.23;73.14;98902.94;5051666;28;20111;-76
2022/01/13 11:51:43;;;;;;;17.25;9.35;;;;;;;2.45;72.45;98906.19;5051702;28;20049;-75